createdAt,value
2022-07-29T00:00:32.797Z,24.95
2022-07-29T00:03:07.412Z,24.97
2022-07-29T00:05:38.136Z,24.94
2022-07-29T00:08:12.412Z,24.90
2022-07-29T00:10:43.369Z,24.88
2022-07-29T00:13:14.031Z,24.83
2022-07-29T00:15:44.699Z,24.81
2022-07-29T00:18:15.331Z,24.78
2022-07-29T00:20:46.072Z,24.79
2022-07-29T00:23:16.799Z,24.76
2022-07-29T00:25:47.494Z,24.72
2022-07-29T00:28:18.131Z,24.73
2022-07-29T00:30:48.760Z,24.68
2022-07-29T00:33:19.383Z,24.66
2022-07-29T00:35:50.142Z,24.66
2022-07-29T00:38:21.260Z,24.69
2022-07-29T00:40:51.965Z,24.67
2022-07-29T00:43:22.694Z,24.62
2022-07-29T00:45:53.682Z,24.58
2022-07-29T00:48:24.351Z,24.59
2022-07-29T00:50:55.157Z,24.59
2022-07-29T00:53:25.941Z,24.56
2022-07-29T00:55:58.154Z,24.50
2022-07-29T00:58:28.797Z,24.47
2022-07-29T01:00:59.540Z,24.49
2022-07-29T01:03:30.324Z,24.53
2022-07-29T01:06:00.968Z,24.54
2022-07-29T01:08:31.701Z,24.54
2022-07-29T01:11:02.505Z,24.51
2022-07-29T01:13:34.455Z,24.47
2022-07-29T01:16:05.898Z,24.43
2022-07-29T01:18:37.860Z,24.42
2022-07-29T01:21:27.919Z,24.44
2022-07-29T01:24:05.018Z,24.47
2022-07-29T01:26:37.694Z,24.46
2022-07-29T01:29:12.417Z,24.42
2022-07-29T01:31:58.629Z,24.43
2022-07-29T01:34:36.131Z,24.41
2022-07-29T01:37:09.077Z,24.42
2022-07-29T01:39:40.035Z,24.42
2022-07-29T01:42:13.215Z,24.41
2022-07-29T01:44:44.473Z,24.35
2022-07-29T01:47:16.537Z,24.25
2022-07-29T01:49:49.085Z,24.16
2022-07-29T01:52:21.596Z,24.12
2022-07-29T01:54:53.593Z,24.07
2022-07-29T01:57:26.546Z,23.99
2022-07-29T01:59:57.369Z,23.89
2022-07-29T02:02:28.077Z,23.82
2022-07-29T02:04:58.883Z,23.77
2022-07-29T02:07:30.695Z,23.79
2022-07-29T02:10:01.346Z,23.85
2022-07-29T02:12:32.021Z,23.88
2022-07-29T02:15:03.348Z,23.94
2022-07-29T02:17:35.656Z,23.99
2022-07-29T02:20:10.801Z,24.02
2022-07-29T02:22:41.723Z,24.01
2022-07-29T02:25:14.079Z,24.03
2022-07-29T02:27:45.169Z,24.06
2022-07-29T02:30:15.992Z,24.06
2022-07-29T02:32:47.090Z,24.05
2022-07-29T02:35:18.011Z,24.07
2022-07-29T02:38:09.412Z,24.07
2022-07-29T02:40:40.475Z,24.02
2022-07-29T02:43:11.151Z,23.96
2022-07-29T02:45:41.806Z,23.94
2022-07-29T02:48:13.044Z,23.92
2022-07-29T02:50:45.121Z,23.90
2022-07-29T02:53:17.354Z,23.87
2022-07-29T02:55:48.565Z,23.86
2022-07-29T02:58:22.057Z,23.84
2022-07-29T03:00:52.857Z,23.82
2022-07-29T03:03:23.510Z,23.80
2022-07-29T03:05:54.832Z,23.79
2022-07-29T03:08:25.592Z,23.80
2022-07-29T03:10:56.256Z,23.82
2022-07-29T03:13:26.886Z,23.84
2022-07-29T03:15:57.593Z,23.86
2022-07-29T03:18:28.357Z,23.88
2022-07-29T03:20:59.089Z,23.87
2022-07-29T03:23:33.238Z,23.85
2022-07-29T03:26:07.636Z,23.80
2022-07-29T03:28:38.286Z,23.77
2022-07-29T03:31:10.551Z,23.75
2022-07-29T03:33:41.189Z,23.74
2022-07-29T03:36:12.082Z,23.78
2022-07-29T03:38:42.711Z,23.84
2022-07-29T03:41:13.514Z,23.87
2022-07-29T03:43:49.693Z,23.87
2022-07-29T03:46:20.692Z,23.89
2022-07-29T03:48:51.550Z,23.89
2022-07-29T03:51:33.079Z,23.89
2022-07-29T03:54:09.824Z,23.85
2022-07-29T03:56:42.212Z,23.83
2022-07-29T03:59:12.827Z,23.82
2022-07-29T04:01:43.602Z,23.82
2022-07-29T04:04:14.587Z,23.81
2022-07-29T04:06:46.066Z,23.78
2022-07-29T04:09:19.171Z,23.79
2022-07-29T04:12:03.565Z,23.78
2022-07-29T04:14:35.215Z,23.76
2022-07-29T04:17:06.258Z,23.76
2022-07-29T04:19:36.904Z,23.76
2022-07-29T04:22:07.588Z,23.76
2022-07-29T04:24:38.242Z,23.73
2022-07-29T04:27:08.981Z,23.71
2022-07-29T04:29:56.924Z,23.76
2022-07-29T04:32:28.451Z,23.83
2022-07-29T04:34:59.117Z,23.89
2022-07-29T04:37:29.819Z,23.91
2022-07-29T04:40:00.561Z,23.93
2022-07-29T04:42:31.209Z,23.92
2022-07-29T04:45:01.850Z,23.90
2022-07-29T04:47:32.634Z,23.92
2022-07-29T04:50:03.360Z,23.93
2022-07-29T04:52:34.008Z,23.91
2022-07-29T04:55:05.260Z,23.90
2022-07-29T04:57:35.931Z,23.91
2022-07-29T05:00:07.843Z,23.93
2022-07-29T05:02:38.567Z,23.97
2022-07-29T05:05:09.801Z,24.02
2022-07-29T05:07:40.452Z,24.07
2022-07-29T05:10:12.910Z,24.09
2022-07-29T05:12:43.631Z,24.11
2022-07-29T05:15:14.264Z,24.17
2022-07-29T05:17:45.074Z,24.24
2022-07-29T05:20:15.694Z,24.29
2022-07-29T05:22:46.404Z,24.36
2022-07-29T05:25:17.081Z,24.43
2022-07-29T05:27:47.783Z,24.51
2022-07-29T05:30:21.795Z,24.60
2022-07-29T05:32:52.661Z,24.67
2022-07-29T05:35:23.680Z,24.72
2022-07-29T05:37:54.330Z,24.78
2022-07-29T05:40:25.196Z,24.84
2022-07-29T05:42:55.873Z,24.91
2022-07-29T05:45:26.693Z,24.96
2022-07-29T05:47:58.287Z,25.03
2022-07-29T05:50:28.976Z,25.06
2022-07-29T05:52:59.761Z,25.10
2022-07-29T05:55:49.541Z,25.14
2022-07-29T05:58:20.284Z,25.16
2022-07-29T06:00:51.131Z,25.19
2022-07-29T06:03:21.819Z,25.23
2022-07-29T06:05:52.439Z,25.29
2022-07-29T06:08:23.102Z,25.37
2022-07-29T06:10:53.744Z,25.42
2022-07-29T06:13:24.473Z,25.49
2022-07-29T06:15:55.336Z,25.58
2022-07-29T06:18:26.042Z,25.66
2022-07-29T06:20:56.786Z,25.75
2022-07-29T06:23:27.488Z,25.81
2022-07-29T06:25:58.078Z,25.88
2022-07-29T06:28:29.293Z,25.96
2022-07-29T06:31:00.065Z,26.07
2022-07-29T06:33:30.853Z,26.19
2022-07-29T06:36:01.874Z,26.29
2022-07-29T06:38:34.342Z,26.37
2022-07-29T06:41:13.654Z,26.49
2022-07-29T06:43:50.629Z,26.60
2022-07-29T06:46:24.046Z,26.76
2022-07-29T06:48:55.320Z,26.89
2022-07-29T06:51:26.215Z,27.01
2022-07-29T06:54:02.974Z,27.10
2022-07-29T06:56:38.685Z,27.16
2022-07-29T06:59:11.398Z,27.20
2022-07-29T07:01:42.948Z,27.25
2022-07-29T07:04:14.787Z,27.27
2022-07-29T07:06:46.083Z,27.29
2022-07-29T07:09:16.723Z,27.39
2022-07-29T07:11:49.543Z,27.48
2022-07-29T07:14:21.616Z,27.54
2022-07-29T07:16:52.811Z,27.63
2022-07-29T07:19:25.619Z,27.75
2022-07-29T07:21:56.313Z,27.88
2022-07-29T07:24:26.992Z,28.07
2022-07-29T07:26:57.607Z,28.27
2022-07-29T07:29:28.285Z,28.47
2022-07-29T07:32:01.221Z,28.67
2022-07-29T07:34:32.339Z,28.86
2022-07-29T07:37:03.006Z,29.08
2022-07-29T07:39:33.716Z,29.32
2022-07-29T07:42:04.500Z,29.53
2022-07-29T07:44:51.311Z,29.73
2022-07-29T07:47:27.964Z,29.95
2022-07-29T07:49:58.963Z,30.15
2022-07-29T07:52:29.633Z,30.34
2022-07-29T07:55:00.326Z,30.54
2022-07-29T07:57:31.070Z,30.77
2022-07-29T08:00:01.726Z,30.81
2022-07-29T08:02:32.527Z,30.75
2022-07-29T08:05:03.320Z,30.81
2022-07-29T08:07:34.017Z,30.91
2022-07-29T08:10:04.944Z,30.96
2022-07-29T08:12:35.718Z,31.04
2022-07-29T08:15:08.746Z,31.04
2022-07-29T08:17:39.393Z,31.04
2022-07-29T08:20:10.606Z,31.10
2022-07-29T08:22:41.439Z,31.26
2022-07-29T08:25:12.277Z,31.35
2022-07-29T08:27:47.707Z,31.48
2022-07-29T08:30:18.500Z,31.72
2022-07-29T08:32:54.324Z,31.98
2022-07-29T08:35:26.087Z,32.16
2022-07-29T08:37:57.936Z,32.32
2022-07-29T08:40:32.051Z,32.52
2022-07-29T08:43:08.109Z,32.71
2022-07-29T08:45:44.745Z,32.88
2022-07-29T08:48:19.730Z,33.14
2022-07-29T08:50:50.934Z,33.46
2022-07-29T08:53:21.654Z,33.81
2022-07-29T08:55:52.412Z,34.09
2022-07-29T08:58:25.142Z,34.32
2022-07-29T09:00:58.340Z,34.42
2022-07-29T09:03:32.851Z,34.29
2022-07-29T09:06:03.631Z,34.33
2022-07-29T09:08:35.132Z,34.46
2022-07-29T09:11:05.915Z,34.62
2022-07-29T09:13:37.057Z,34.78
2022-07-29T09:16:09.574Z,34.91
2022-07-29T09:18:41.042Z,35.07
2022-07-29T09:21:32.056Z,35.25
2022-07-29T09:24:07.739Z,35.37
2022-07-29T09:26:39.234Z,35.44
2022-07-29T09:29:13.582Z,35.66
2022-07-29T09:31:45.006Z,35.96
2022-07-29T09:34:16.302Z,36.15
2022-07-29T09:36:47.329Z,36.24
2022-07-29T09:39:18.539Z,36.50
2022-07-29T09:41:54.355Z,36.85
2022-07-29T09:44:25.453Z,36.99
2022-07-29T09:47:07.153Z,37.28
2022-07-29T09:49:38.439Z,37.52
2022-07-29T09:52:09.979Z,37.62
2022-07-29T09:54:40.718Z,37.80
2022-07-29T09:57:13.699Z,37.95
2022-07-29T09:59:50.066Z,38.05
2022-07-29T10:02:23.932Z,38.12
2022-07-29T10:04:54.807Z,38.20
2022-07-29T10:07:25.475Z,38.31
2022-07-29T10:09:57.194Z,38.53
2022-07-29T10:12:27.907Z,38.65
2022-07-29T10:14:58.546Z,38.84
2022-07-29T10:17:29.205Z,38.93
2022-07-29T10:19:59.867Z,38.94
2022-07-29T10:22:51.875Z,39.04
2022-07-29T10:25:21.518Z,39.16
2022-07-29T10:27:53.492Z,39.17
2022-07-29T10:30:24.418Z,39.20
2022-07-29T10:33:11.513Z,39.48
2022-07-29T10:35:55.920Z,39.95
2022-07-29T10:38:45.722Z,40.45
2022-07-29T10:41:32.237Z,40.84
2022-07-29T10:44:19.440Z,41.21
2022-07-29T10:46:54.583Z,41.14
2022-07-29T10:49:30.424Z,41.00
2022-07-29T10:52:03.479Z,40.84
2022-07-29T10:54:44.657Z,40.74
2022-07-29T10:57:54.459Z,40.68
2022-07-29T11:00:30.146Z,40.95
2022-07-29T11:03:04.659Z,41.29
2022-07-29T11:09:07.835Z,41.71
2022-07-29T11:11:44.180Z,41.29
2022-07-29T11:14:26.659Z,41.17
2022-07-29T11:17:06.391Z,41.32
2022-07-29T11:19:45.679Z,41.55
2022-07-29T11:25:50.156Z,41.74
2022-07-29T11:28:13.552Z,41.94
2022-07-29T11:30:51.778Z,41.65
2022-07-29T11:33:54.113Z,41.35
2022-07-29T11:36:28.299Z,41.29
2022-07-29T11:39:15.053Z,41.16
2022-07-29T11:41:45.984Z,41.00
2022-07-29T11:44:18.132Z,40.94
2022-07-29T11:46:50.088Z,40.98
2022-07-29T11:49:31.665Z,41.16
2022-07-29T11:52:04.282Z,41.25
2022-07-29T11:54:57.476Z,41.05
2022-07-29T11:57:36.337Z,40.81
2022-07-29T12:00:12.137Z,40.81
2022-07-29T12:02:48.216Z,40.84
2022-07-29T12:05:35.838Z,41.11
2022-07-29T12:08:12.766Z,41.34
2022-07-29T12:10:46.977Z,41.49
2022-07-29T12:13:19.554Z,41.78
2022-07-29T12:16:00.105Z,42.04
2022-07-29T12:18:31.138Z,42.00
2022-07-29T12:21:04.964Z,41.94
2022-07-29T12:23:36.117Z,41.83
2022-07-29T12:26:10.545Z,41.61
2022-07-29T12:28:41.598Z,41.49
2022-07-29T12:31:44.077Z,41.48
2022-07-29T12:34:07.720Z,41.47
2022-07-29T12:36:38.483Z,41.41
2022-07-29T12:39:10.218Z,41.36
2022-07-29T12:41:40.981Z,41.23
2022-07-29T12:44:11.612Z,41.32
2022-07-29T12:46:42.296Z,41.38
2022-07-29T12:49:13.142Z,41.45
2022-07-29T12:51:43.843Z,41.67
2022-07-29T12:54:15.357Z,41.99
2022-07-29T12:56:46.489Z,42.04
2022-07-29T12:59:18.934Z,41.96
2022-07-29T13:01:50.525Z,41.92
2022-07-29T13:04:28.775Z,42.13
2022-07-29T13:07:04.431Z,42.60
2022-07-29T13:09:42.502Z,42.55
2022-07-29T13:12:13.976Z,42.22
2022-07-29T13:14:46.980Z,42.02
2022-07-29T13:17:18.212Z,41.88
2022-07-29T13:19:50.799Z,41.76
2022-07-29T13:22:22.130Z,41.76
2022-07-29T13:24:53.899Z,41.85
2022-07-29T13:27:25.331Z,41.86
2022-07-29T13:29:57.628Z,41.81
2022-07-29T13:32:29.131Z,41.80
2022-07-29T13:35:04.973Z,41.68
2022-07-29T13:37:39.323Z,41.60
2022-07-29T13:40:10.813Z,41.52
2022-07-29T13:42:41.959Z,41.41
2022-07-29T13:45:13.204Z,41.51
2022-07-29T13:47:49.232Z,41.67
2022-07-29T13:50:20.306Z,41.66
2022-07-29T13:52:51.946Z,41.67
2022-07-29T13:55:22.622Z,41.65
2022-07-29T13:57:53.403Z,41.42
2022-07-29T14:00:24.778Z,41.22
2022-07-29T14:02:55.529Z,40.69
2022-07-29T14:05:26.691Z,40.45
2022-07-29T14:07:57.335Z,40.34
2022-07-29T14:10:28.107Z,40.33
2022-07-29T14:12:58.777Z,40.26
2022-07-29T14:15:29.479Z,40.36
2022-07-29T14:18:00.264Z,40.37
2022-07-29T14:20:31.808Z,40.42
2022-07-29T14:23:02.546Z,40.55
2022-07-29T14:25:33.701Z,40.60
2022-07-29T14:28:04.644Z,40.62
2022-07-29T14:30:35.373Z,40.70
2022-07-29T14:33:06.105Z,40.86
2022-07-29T14:35:36.763Z,41.24
2022-07-29T14:38:07.414Z,41.65
2022-07-29T14:40:38.308Z,41.85
2022-07-29T14:43:09.097Z,41.75
2022-07-29T14:45:39.767Z,41.52
2022-07-29T14:48:12.607Z,41.28
2022-07-29T14:50:43.219Z,41.10
2022-07-29T14:53:14.680Z,40.86
2022-07-29T14:55:45.389Z,40.66
2022-07-29T14:58:16.755Z,40.45
2022-07-29T15:00:47.679Z,40.39
2022-07-29T15:03:23.813Z,40.40
2022-07-29T15:05:55.120Z,40.30
2022-07-29T15:08:26.447Z,40.09
2022-07-29T15:10:58.679Z,39.86
2022-07-29T15:13:29.350Z,39.46
2022-07-29T15:16:00.415Z,39.13
2022-07-29T15:18:31.347Z,38.89
2022-07-29T15:21:03.490Z,38.71
2022-07-29T15:23:34.159Z,38.53
2022-07-29T15:26:04.820Z,38.42
2022-07-29T15:28:35.513Z,38.34
2022-07-29T15:31:06.219Z,38.22
2022-07-29T15:33:36.877Z,38.23
2022-07-29T15:36:08.153Z,38.29
2022-07-29T15:38:41.619Z,38.31
2022-07-29T15:41:15.609Z,38.29
2022-07-29T15:43:48.537Z,38.16
2022-07-29T15:46:37.596Z,38.01
2022-07-29T15:49:08.740Z,37.84
2022-07-29T15:51:39.720Z,37.71
2022-07-29T15:54:10.445Z,37.55
2022-07-29T15:56:41.162Z,37.44
2022-07-29T15:59:11.831Z,37.37
2022-07-29T16:01:53.445Z,37.35
2022-07-29T16:04:24.252Z,37.29
2022-07-29T16:06:55.265Z,37.21
2022-07-29T16:09:26.422Z,37.10
2022-07-29T16:11:57.074Z,36.94
2022-07-29T16:14:28.071Z,36.77
2022-07-29T16:17:02.093Z,36.60
2022-07-29T16:19:33.177Z,36.46
2022-07-29T16:22:04.011Z,36.38
2022-07-29T16:24:34.766Z,36.29
2022-07-29T16:27:05.604Z,36.20
2022-07-29T16:29:37.611Z,36.09
2022-07-29T16:32:08.671Z,36.00
2022-07-29T16:34:40.125Z,35.97
2022-07-29T16:37:10.811Z,35.94
2022-07-29T16:39:41.631Z,35.85
2022-07-29T16:42:25.820Z,35.75
2022-07-29T16:45:03.031Z,35.64
2022-07-29T16:47:33.779Z,35.57
2022-07-29T16:50:05.709Z,35.46
2022-07-29T16:52:37.784Z,35.38
2022-07-29T16:55:09.567Z,35.30
2022-07-29T16:57:42.014Z,35.19
2022-07-29T17:00:14.001Z,35.10
2022-07-29T17:02:44.684Z,34.99
2022-07-29T17:05:15.988Z,34.85
2022-07-29T17:07:46.706Z,34.74
2022-07-29T17:10:17.351Z,34.63
2022-07-29T17:12:48.054Z,34.56
2022-07-29T17:15:19.039Z,34.51
2022-07-29T17:17:56.402Z,34.48
2022-07-29T17:20:28.071Z,34.43
2022-07-29T17:23:00.134Z,34.38
2022-07-29T17:25:30.912Z,34.34
2022-07-29T17:28:01.704Z,34.30
2022-07-29T17:30:32.572Z,34.19
2022-07-29T17:33:03.253Z,34.12
2022-07-29T17:35:51.414Z,34.07
2022-07-29T17:38:22.082Z,34.00
2022-07-29T17:40:52.695Z,33.89
2022-07-29T17:43:23.448Z,33.84
2022-07-29T17:45:59.336Z,33.74
2022-07-29T17:48:30.255Z,33.66
2022-07-29T17:51:00.920Z,33.58
2022-07-29T17:53:31.498Z,33.40
2022-07-29T17:56:02.315Z,33.26
2022-07-29T17:58:33.115Z,33.13
2022-07-29T18:01:03.796Z,33.03
2022-07-29T18:03:34.477Z,32.93
2022-07-29T18:06:08.362Z,32.88
2022-07-29T18:08:39.218Z,32.80
2022-07-29T18:11:09.945Z,32.71
2022-07-29T18:13:45.752Z,32.62
2022-07-29T18:16:16.561Z,32.56
2022-07-29T18:18:47.506Z,32.49
2022-07-29T18:21:18.223Z,32.38
2022-07-29T18:24:09.616Z,32.27
2022-07-29T18:26:40.730Z,32.18
2022-07-29T18:29:12.527Z,32.09
2022-07-29T18:31:43.181Z,31.98
2022-07-29T18:34:13.961Z,31.94
2022-07-29T18:36:45.978Z,31.92
2022-07-29T18:39:21.018Z,31.83
2022-07-29T18:41:52.086Z,31.73
2022-07-29T18:44:22.991Z,31.60
2022-07-29T18:46:54.506Z,31.44
2022-07-29T18:49:25.231Z,31.32
2022-07-29T18:51:57.075Z,31.23
2022-07-29T18:54:27.726Z,31.16
2022-07-29T18:56:58.656Z,31.08
2022-07-29T18:59:30.671Z,30.95
2022-07-29T19:02:01.435Z,30.78
2022-07-29T19:04:32.187Z,30.62
2022-07-29T19:07:03.640Z,30.50
2022-07-29T19:09:34.642Z,30.36
2022-07-29T19:12:14.528Z,30.24
2022-07-29T19:14:45.238Z,30.17
2022-07-29T19:17:15.924Z,30.09
2022-07-29T19:19:46.667Z,29.98
2022-07-29T19:22:17.377Z,29.88
2022-07-29T19:24:48.185Z,29.78
2022-07-29T19:27:19.044Z,29.61
2022-07-29T19:29:49.731Z,29.46
2022-07-29T19:32:24.979Z,29.41
2022-07-29T19:35:13.972Z,29.35
2022-07-29T19:37:44.688Z,29.27
2022-07-29T19:40:16.450Z,29.25
2022-07-29T19:42:48.349Z,29.18
2022-07-29T19:45:19.466Z,29.06
2022-07-29T19:47:50.217Z,28.92
2022-07-29T19:50:20.982Z,28.82
2022-07-29T19:52:51.771Z,28.79
2022-07-29T19:55:23.631Z,28.78
2022-07-29T19:57:54.329Z,28.72
2022-07-29T20:00:26.136Z,28.66
2022-07-29T20:02:57.546Z,28.60
2022-07-29T20:05:28.504Z,28.59
2022-07-29T20:07:59.429Z,28.53
2022-07-29T20:10:30.189Z,28.38
2022-07-29T20:13:00.809Z,28.28
2022-07-29T20:15:31.587Z,28.11
2022-07-29T20:18:02.482Z,27.98
2022-07-29T20:20:33.187Z,27.84
2022-07-29T20:23:03.905Z,27.61
2022-07-29T20:25:34.536Z,27.48
2022-07-29T20:28:05.532Z,27.41
2022-07-29T20:30:36.166Z,27.36
2022-07-29T20:33:09.395Z,27.33
2022-07-29T20:35:41.129Z,27.33
2022-07-29T20:38:16.294Z,27.31
2022-07-29T20:40:49.875Z,27.24
2022-07-29T20:43:20.527Z,27.11
2022-07-29T20:45:51.151Z,27.06
2022-07-29T20:48:21.961Z,27.06
2022-07-29T20:50:53.124Z,26.98
2022-07-29T20:53:23.958Z,26.88
2022-07-29T20:55:55.222Z,26.81
2022-07-29T20:58:25.901Z,26.74
2022-07-29T21:00:56.632Z,26.72
2022-07-29T21:03:27.385Z,26.73
2022-07-29T21:05:58.039Z,26.72
2022-07-29T21:08:29.032Z,26.73
2022-07-29T21:10:59.655Z,26.71
2022-07-29T21:13:30.418Z,26.64
2022-07-29T21:16:03.472Z,26.61
2022-07-29T21:18:37.829Z,26.56
2022-07-29T21:21:09.045Z,26.55
2022-07-29T21:23:39.756Z,26.58
2022-07-29T21:26:12.983Z,26.56
2022-07-29T21:28:44.009Z,26.51
2022-07-29T21:31:15.028Z,26.47
2022-07-29T21:33:46.291Z,26.41
2022-07-29T21:36:46.481Z,26.41
2022-07-29T21:39:08.165Z,26.38
2022-07-29T21:41:38.879Z,26.36
2022-07-29T21:44:09.557Z,26.34
2022-07-29T21:46:40.244Z,26.32
2022-07-29T21:49:10.957Z,26.26
2022-07-29T21:51:41.663Z,26.20
2022-07-29T21:54:12.577Z,26.18
2022-07-29T21:56:44.805Z,26.19
2022-07-29T21:59:22.169Z,26.19
2022-07-29T22:01:53.026Z,26.18
2022-07-29T22:04:23.971Z,26.16
2022-07-29T22:06:54.659Z,26.16
2022-07-29T22:09:25.507Z,26.14
2022-07-29T22:11:56.179Z,26.06
2022-07-29T22:14:27.174Z,26.01
2022-07-29T22:16:58.466Z,25.94
2022-07-29T22:19:30.298Z,25.90
2022-07-29T22:22:01.027Z,25.89
2022-07-29T22:24:31.730Z,25.89
2022-07-29T22:27:02.628Z,25.87
2022-07-29T22:29:33.545Z,25.80
2022-07-29T22:32:04.203Z,25.76
2022-07-29T22:34:37.886Z,25.74
2022-07-29T22:37:08.804Z,25.76
2022-07-29T22:39:39.518Z,25.72
2022-07-29T22:42:10.279Z,25.68
2022-07-29T22:44:41.025Z,25.70
2022-07-29T22:47:11.687Z,25.69
2022-07-29T22:49:42.406Z,25.65
2022-07-29T22:52:13.038Z,25.62
2022-07-29T22:54:46.067Z,25.57
2022-07-29T22:57:16.665Z,25.51
2022-07-29T22:59:47.372Z,25.46
2022-07-29T23:02:18.039Z,25.41
2022-07-29T23:04:48.823Z,25.37
2022-07-29T23:07:19.639Z,25.35
2022-07-29T23:09:50.332Z,25.34
2022-07-29T23:12:20.972Z,25.35
2022-07-29T23:14:51.742Z,25.30
2022-07-29T23:17:22.443Z,25.29
2022-07-29T23:19:53.181Z,25.31
2022-07-29T23:22:23.951Z,25.27
2022-07-29T23:24:54.645Z,25.22
2022-07-29T23:27:25.664Z,25.22
2022-07-29T23:29:56.296Z,25.20
2022-07-29T23:32:26.853Z,25.19
2022-07-29T23:34:57.624Z,25.20
2022-07-29T23:37:28.310Z,25.22
2022-07-29T23:39:59.037Z,25.25
2022-07-29T23:42:29.749Z,25.24
2022-07-29T23:45:00.492Z,25.21
2022-07-29T23:47:31.238Z,25.12
2022-07-29T23:50:01.973Z,25.07
2022-07-29T23:52:32.599Z,25.04
2022-07-29T23:55:37.168Z,25.00
2022-07-29T23:57:54.406Z,25.01
